sensor_id;sensor_type;location;lat;lon;timestamp;temperature;humidity
5520;DHT22;2782;52.362;10.012;2023-03-14T00:00:16;17.90;63.80
5520;DHT22;2782;52.362;10.012;2023-03-14T00:01:19;17.80;63.80
5520;DHT22;2782;52.362;10.012;2023-03-14T00:02:20;17.80;63.80
5520;DHT22;2782;52.362;10.012;2023-03-14T00:03:22;17.80;63.70
5520;DHT22;2782;52.362;10.012;2023-03-14T00:04:24;17.80;63.60
5520;DHT22;2782;52.362;10.012;2023-03-14T00:05:25;17.80;63.40
5520;DHT22;2782;52.362;10.012;2023-03-14T00:06:26;17.80;63.40
5520;DHT22;2782;52.362;10.012;2023-03-14T00:07:28;17.80;63.40
5520;DHT22;2782;52.362;10.012;2023-03-14T00:08:32;17.80;63.30
5520;DHT22;2782;52.362;10.012;2023-03-14T00:09:33;17.80;63.40
5520;DHT22;2782;52.362;10.012;2023-03-14T00:10:35;17.80;63.40
5520;DHT22;2782;52.362;10.012;2023-03-14T00:11:37;17.70;63.30
5520;DHT22;2782;52.362;10.012;2023-03-14T00:12:38;17.70;63.30
5520;DHT22;2782;52.362;10.012;2023-03-14T00:13:39;17.70;63.30
5520;DHT22;2782;52.362;10.012;2023-03-14T00:14:40;17.70;63.30
5520;DHT22;2782;52.362;10.012;2023-03-14T00:15:42;17.70;63.30
5520;DHT22;2782;52.362;10.012;2023-03-14T00:16:45;17.70;63.30
5520;DHT22;2782;52.362;10.012;2023-03-14T00:17:47;17.70;63.30
5520;DHT22;2782;52.362;10.012;2023-03-14T00:18:47;17.70;63.30
5520;DHT22;2782;52.362;10.012;2023-03-14T00:19:50;17.70;63.30
5520;DHT22;2782;52.362;10.012;2023-03-14T00:20:54;17.60;63.20
5520;DHT22;2782;52.362;10.012;2023-03-14T00:21:58;17.70;63.30
5520;DHT22;2782;52.362;10.012;2023-03-14T00:22:58;17.70;63.30
5520;DHT22;2782;52.362;10.012;2023-03-14T00:24:00;17.70;63.30
5520;DHT22;2782;52.362;10.012;2023-03-14T00:25:01;17.60;63.20
5520;DHT22;2782;52.362;10.012;2023-03-14T00:26:04;17.60;63.20
5520;DHT22;2782;52.362;10.012;2023-03-14T00:27:05;17.60;63.20
5520;DHT22;2782;52.362;10.012;2023-03-14T00:28:07;17.60;63.20
5520;DHT22;2782;52.362;10.012;2023-03-14T00:29:07;17.60;63.20
5520;DHT22;2782;52.362;10.012;2023-03-14T00:30:10;17.60;63.20
5520;DHT22;2782;52.362;10.012;2023-03-14T00:31:13;17.60;63.20
5520;DHT22;2782;52.362;10.012;2023-03-14T00:32:14;17.60;63.20
5520;DHT22;2782;52.362;10.012;2023-03-14T00:33:15;17.60;63.20
5520;DHT22;2782;52.362;10.012;2023-03-14T00:34:17;17.60;63.20
5520;DHT22;2782;52.362;10.012;2023-03-14T00:35:19;17.60;63.20
5520;DHT22;2782;52.362;10.012;2023-03-14T00:36:21;17.60;63.20
5520;DHT22;2782;52.362;10.012;2023-03-14T00:37:21;17.60;63.20
5520;DHT22;2782;52.362;10.012;2023-03-14T00:38:23;17.60;63.20
5520;DHT22;2782;52.362;10.012;2023-03-14T00:39:24;17.60;63.20
5520;DHT22;2782;52.362;10.012;2023-03-14T00:40:26;17.60;63.10
5520;DHT22;2782;52.362;10.012;2023-03-14T00:41:26;17.60;63.10
5520;DHT22;2782;52.362;10.012;2023-03-14T00:42:28;17.60;63.10
5520;DHT22;2782;52.362;10.012;2023-03-14T00:43:28;17.60;63.10
5520;DHT22;2782;52.362;10.012;2023-03-14T00:44:30;17.60;63.10
5520;DHT22;2782;52.362;10.012;2023-03-14T00:45:32;17.50;63.00
5520;DHT22;2782;52.362;10.012;2023-03-14T00:46:33;17.50;62.90
5520;DHT22;2782;52.362;10.012;2023-03-14T00:47:34;17.50;62.90
5520;DHT22;2782;52.362;10.012;2023-03-14T00:48:36;17.50;62.90
5520;DHT22;2782;52.362;10.012;2023-03-14T00:49:37;17.50;62.90
5520;DHT22;2782;52.362;10.012;2023-03-14T00:50:40;17.50;62.90
5520;DHT22;2782;52.362;10.012;2023-03-14T00:51:41;17.50;63.00
5520;DHT22;2782;52.362;10.012;2023-03-14T00:52:43;17.50;63.00
5520;DHT22;2782;52.362;10.012;2023-03-14T00:53:44;17.50;62.90
5520;DHT22;2782;52.362;10.012;2023-03-14T00:54:45;17.50;62.90
5520;DHT22;2782;52.362;10.012;2023-03-14T00:55:46;17.50;63.00
5520;DHT22;2782;52.362;10.012;2023-03-14T00:56:48;17.50;63.00
5520;DHT22;2782;52.362;10.012;2023-03-14T00:57:48;17.50;62.90
5520;DHT22;2782;52.362;10.012;2023-03-14T00:58:53;17.50;62.90
5520;DHT22;2782;52.362;10.012;2023-03-14T00:59:54;17.50;62.90
5520;DHT22;2782;52.362;10.012;2023-03-14T01:00:56;17.50;62.80
5520;DHT22;2782;52.362;10.012;2023-03-14T01:01:56;17.50;62.80
5520;DHT22;2782;52.362;10.012;2023-03-14T01:02:58;17.50;62.80
5520;DHT22;2782;52.362;10.012;2023-03-14T01:03:59;17.50;62.80
5520;DHT22;2782;52.362;10.012;2023-03-14T01:05:00;17.50;62.80
5520;DHT22;2782;52.362;10.012;2023-03-14T01:06:13;17.50;62.80
5520;DHT22;2782;52.362;10.012;2023-03-14T01:07:16;17.50;62.80
5520;DHT22;2782;52.362;10.012;2023-03-14T01:08:16;17.50;62.80
5520;DHT22;2782;52.362;10.012;2023-03-14T01:09:18;17.40;62.70
5520;DHT22;2782;52.362;10.012;2023-03-14T01:10:19;17.40;62.60
5520;DHT22;2782;52.362;10.012;2023-03-14T01:11:22;17.40;62.60
5520;DHT22;2782;52.362;10.012;2023-03-14T01:12:22;17.40;62.60
5520;DHT22;2782;52.362;10.012;2023-03-14T01:13:24;17.40;62.60
5520;DHT22;2782;52.362;10.012;2023-03-14T01:14:25;17.40;62.60
5520;DHT22;2782;52.362;10.012;2023-03-14T01:15:26;17.40;62.60
5520;DHT22;2782;52.362;10.012;2023-03-14T01:16:30;17.40;62.60
5520;DHT22;2782;52.362;10.012;2023-03-14T01:17:31;17.40;62.60
5520;DHT22;2782;52.362;10.012;2023-03-14T01:18:33;17.40;62.60
5520;DHT22;2782;52.362;10.012;2023-03-14T01:19:35;17.40;62.60
5520;DHT22;2782;52.362;10.012;2023-03-14T01:20:37;17.40;62.60
5520;DHT22;2782;52.362;10.012;2023-03-14T01:21:39;17.40;62.60
5520;DHT22;2782;52.362;10.012;2023-03-14T01:22:42;17.40;62.60
5520;DHT22;2782;52.362;10.012;2023-03-14T01:23:44;17.40;62.60
5520;DHT22;2782;52.362;10.012;2023-03-14T01:24:45;17.40;62.60
5520;DHT22;2782;52.362;10.012;2023-03-14T01:25:47;17.40;62.50
5520;DHT22;2782;52.362;10.012;2023-03-14T01:26:47;17.40;62.60
5520;DHT22;2782;52.362;10.012;2023-03-14T01:27:49;17.40;62.50
5520;DHT22;2782;52.362;10.012;2023-03-14T01:28:52;17.40;62.50
5520;DHT22;2782;52.362;10.012;2023-03-14T01:29:54;17.40;62.50
5520;DHT22;2782;52.362;10.012;2023-03-14T01:30:55;17.40;62.50
5520;DHT22;2782;52.362;10.012;2023-03-14T01:31:56;17.40;62.50
5520;DHT22;2782;52.362;10.012;2023-03-14T01:32:57;17.40;62.50
5520;DHT22;2782;52.362;10.012;2023-03-14T01:33:58;17.40;62.50
5520;DHT22;2782;52.362;10.012;2023-03-14T01:34:59;17.40;62.50
5520;DHT22;2782;52.362;10.012;2023-03-14T01:36:01;17.40;62.40
5520;DHT22;2782;52.362;10.012;2023-03-14T01:37:03;17.40;62.50
5520;DHT22;2782;52.362;10.012;2023-03-14T01:38:06;17.40;62.50
5520;DHT22;2782;52.362;10.012;2023-03-14T01:39:06;17.40;62.40
5520;DHT22;2782;52.362;10.012;2023-03-14T01:40:11;17.40;62.50
5520;DHT22;2782;52.362;10.012;2023-03-14T01:41:13;17.40;62.50
5520;DHT22;2782;52.362;10.012;2023-03-14T01:42:15;17.40;62.40
5520;DHT22;2782;52.362;10.012;2023-03-14T01:43:18;17.40;62.40
5520;DHT22;2782;52.362;10.012;2023-03-14T01:44:20;17.40;62.40
5520;DHT22;2782;52.362;10.012;2023-03-14T01:47:00;17.40;62.50
5520;DHT22;2782;52.362;10.012;2023-03-14T01:48:01;17.30;62.40
5520;DHT22;2782;52.362;10.012;2023-03-14T01:49:16;17.30;62.50
5520;DHT22;2782;52.362;10.012;2023-03-14T01:50:19;17.30;62.40
5520;DHT22;2782;52.362;10.012;2023-03-14T01:51:22;17.30;62.50
5520;DHT22;2782;52.362;10.012;2023-03-14T01:52:29;17.40;62.60
5520;DHT22;2782;52.362;10.012;2023-03-14T01:53:35;17.30;62.60
5520;DHT22;2782;52.362;10.012;2023-03-14T01:54:39;17.30;62.60
5520;DHT22;2782;52.362;10.012;2023-03-14T01:55:41;17.30;62.70
5520;DHT22;2782;52.362;10.012;2023-03-14T01:56:45;17.30;62.80
5520;DHT22;2782;52.362;10.012;2023-03-14T01:57:49;17.30;62.80
5520;DHT22;2782;52.362;10.012;2023-03-14T01:58:52;17.30;62.90
5520;DHT22;2782;52.362;10.012;2023-03-14T01:59:58;17.30;62.80
5520;DHT22;2782;52.362;10.012;2023-03-14T02:01:01;17.40;63.00
5520;DHT22;2782;52.362;10.012;2023-03-14T02:02:04;17.30;62.90
5520;DHT22;2782;52.362;10.012;2023-03-14T02:03:10;17.30;63.00
5520;DHT22;2782;52.362;10.012;2023-03-14T02:04:12;17.30;63.00
5520;DHT22;2782;52.362;10.012;2023-03-14T02:05:16;17.30;63.10
5520;DHT22;2782;52.362;10.012;2023-03-14T02:06:21;17.30;63.10
5520;DHT22;2782;52.362;10.012;2023-03-14T02:07:30;17.30;63.20
5520;DHT22;2782;52.362;10.012;2023-03-14T02:08:33;17.30;63.20
5520;DHT22;2782;52.362;10.012;2023-03-14T02:09:37;17.30;63.20
5520;DHT22;2782;52.362;10.012;2023-03-14T02:10:42;17.30;63.30
5520;DHT22;2782;52.362;10.012;2023-03-14T02:11:44;17.30;63.30
5520;DHT22;2782;52.362;10.012;2023-03-14T02:12:47;17.30;63.30
5520;DHT22;2782;52.362;10.012;2023-03-14T02:13:48;17.30;63.30
5520;DHT22;2782;52.362;10.012;2023-03-14T02:14:50;17.30;63.30
5520;DHT22;2782;52.362;10.012;2023-03-14T02:15:52;17.30;63.30
5520;DHT22;2782;52.362;10.012;2023-03-14T02:16:53;17.30;63.30
5520;DHT22;2782;52.362;10.012;2023-03-14T02:17:55;17.30;63.30
5520;DHT22;2782;52.362;10.012;2023-03-14T02:18:57;17.30;63.40
5520;DHT22;2782;52.362;10.012;2023-03-14T02:20:08;17.30;63.40
5520;DHT22;2782;52.362;10.012;2023-03-14T02:21:14;17.30;63.30
5520;DHT22;2782;52.362;10.012;2023-03-14T02:22:18;17.30;63.40
5520;DHT22;2782;52.362;10.012;2023-03-14T02:23:26;17.30;64.20
5520;DHT22;2782;52.362;10.012;2023-03-14T02:24:37;17.30;63.50
5520;DHT22;2782;52.362;10.012;2023-03-14T02:25:43;17.30;63.50
5520;DHT22;2782;52.362;10.012;2023-03-14T02:27:04;17.30;63.50
5520;DHT22;2782;52.362;10.012;2023-03-14T02:28:05;17.30;63.60
5520;DHT22;2782;52.362;10.012;2023-03-14T02:29:07;17.30;63.60
5520;DHT22;2782;52.362;10.012;2023-03-14T02:30:11;17.30;63.60
5520;DHT22;2782;52.362;10.012;2023-03-14T02:31:13;17.30;63.60
5520;DHT22;2782;52.362;10.012;2023-03-14T02:32:16;17.30;63.90
5520;DHT22;2782;52.362;10.012;2023-03-14T02:33:19;17.30;63.70
5520;DHT22;2782;52.362;10.012;2023-03-14T02:34:22;17.30;63.70
5520;DHT22;2782;52.362;10.012;2023-03-14T02:35:26;17.30;63.70
5520;DHT22;2782;52.362;10.012;2023-03-14T02:36:29;17.30;63.70
5520;DHT22;2782;52.362;10.012;2023-03-14T02:37:35;17.30;63.70
5520;DHT22;2782;52.362;10.012;2023-03-14T02:38:43;17.30;63.80
5520;DHT22;2782;52.362;10.012;2023-03-14T02:39:47;17.30;63.70
5520;DHT22;2782;52.362;10.012;2023-03-14T02:40:50;17.30;63.70
5520;DHT22;2782;52.362;10.012;2023-03-14T02:41:52;17.30;63.60
5520;DHT22;2782;52.362;10.012;2023-03-14T02:42:54;17.30;63.70
5520;DHT22;2782;52.362;10.012;2023-03-14T02:43:55;17.30;63.80
5520;DHT22;2782;52.362;10.012;2023-03-14T02:45:25;17.20;63.60
5520;DHT22;2782;52.362;10.012;2023-03-14T02:46:30;17.30;63.80
5520;DHT22;2782;52.362;10.012;2023-03-14T02:47:32;17.30;63.80
5520;DHT22;2782;52.362;10.012;2023-03-14T02:48:35;17.20;63.70
5520;DHT22;2782;52.362;10.012;2023-03-14T02:49:39;17.20;63.70
5520;DHT22;2782;52.362;10.012;2023-03-14T02:50:41;17.20;63.70
5520;DHT22;2782;52.362;10.012;2023-03-14T02:51:45;17.20;63.70
5520;DHT22;2782;52.362;10.012;2023-03-14T02:52:46;17.20;63.70
5520;DHT22;2782;52.362;10.012;2023-03-14T02:53:48;17.20;63.70
5520;DHT22;2782;52.362;10.012;2023-03-14T02:54:49;17.20;63.70
5520;DHT22;2782;52.362;10.012;2023-03-14T02:55:50;17.20;63.70
5520;DHT22;2782;52.362;10.012;2023-03-14T02:56:52;17.20;63.70
5520;DHT22;2782;52.362;10.012;2023-03-14T02:57:54;17.20;63.70
5520;DHT22;2782;52.362;10.012;2023-03-14T02:58:55;17.20;63.70
5520;DHT22;2782;52.362;10.012;2023-03-14T02:59:58;17.20;63.70
5520;DHT22;2782;52.362;10.012;2023-03-14T03:01:00;17.20;63.70
5520;DHT22;2782;52.362;10.012;2023-03-14T03:05:08;17.30;63.90
5520;DHT22;2782;52.362;10.012;2023-03-14T03:06:10;17.20;63.80
5520;DHT22;2782;52.362;10.012;2023-03-14T03:07:11;17.20;63.80
5520;DHT22;2782;52.362;10.012;2023-03-14T03:08:12;17.20;63.80
5520;DHT22;2782;52.362;10.012;2023-03-14T03:09:13;17.20;63.80
5520;DHT22;2782;52.362;10.012;2023-03-14T03:10:14;17.20;63.80
5520;DHT22;2782;52.362;10.012;2023-03-14T03:11:15;17.20;63.80
5520;DHT22;2782;52.362;10.012;2023-03-14T03:12:17;17.20;63.80
5520;DHT22;2782;52.362;10.012;2023-03-14T03:13:19;17.20;63.80
5520;DHT22;2782;52.362;10.012;2023-03-14T03:14:21;17.20;63.70
5520;DHT22;2782;52.362;10.012;2023-03-14T03:15:21;17.20;63.70
5520;DHT22;2782;52.362;10.012;2023-03-14T03:16:23;17.20;63.70
5520;DHT22;2782;52.362;10.012;2023-03-14T03:17:24;17.20;63.70
5520;DHT22;2782;52.362;10.012;2023-03-14T03:18:25;17.20;63.70
5520;DHT22;2782;52.362;10.012;2023-03-14T03:19:26;17.20;63.70
5520;DHT22;2782;52.362;10.012;2023-03-14T03:20:28;17.20;63.70
5520;DHT22;2782;52.362;10.012;2023-03-14T03:21:28;17.20;63.70
5520;DHT22;2782;52.362;10.012;2023-03-14T03:22:30;17.20;63.70
5520;DHT22;2782;52.362;10.012;2023-03-14T03:23:31;17.20;63.70
5520;DHT22;2782;52.362;10.012;2023-03-14T03:24:32;17.20;63.70
5520;DHT22;2782;52.362;10.012;2023-03-14T03:25:33;17.20;63.70
5520;DHT22;2782;52.362;10.012;2023-03-14T03:26:35;17.20;63.70
5520;DHT22;2782;52.362;10.012;2023-03-14T03:27:36;17.20;63.80
5520;DHT22;2782;52.362;10.012;2023-03-14T03:28:39;17.20;63.70
5520;DHT22;2782;52.362;10.012;2023-03-14T03:29:40;17.20;63.70
5520;DHT22;2782;52.362;10.012;2023-03-14T03:30:42;17.20;63.70
5520;DHT22;2782;52.362;10.012;2023-03-14T03:31:43;17.20;63.70
5520;DHT22;2782;52.362;10.012;2023-03-14T03:32:46;17.20;63.60
5520;DHT22;2782;52.362;10.012;2023-03-14T03:33:47;17.20;63.60
5520;DHT22;2782;52.362;10.012;2023-03-14T03:34:48;17.20;63.60
5520;DHT22;2782;52.362;10.012;2023-03-14T03:35:50;17.20;63.60
5520;DHT22;2782;52.362;10.012;2023-03-14T03:36:55;17.20;63.50
5520;DHT22;2782;52.362;10.012;2023-03-14T03:37:55;17.20;63.50
5520;DHT22;2782;52.362;10.012;2023-03-14T03:38:57;17.20;63.50
5520;DHT22;2782;52.362;10.012;2023-03-14T03:39:58;17.20;63.50
5520;DHT22;2782;52.362;10.012;2023-03-14T03:41:02;17.20;64.20
5520;DHT22;2782;52.362;10.012;2023-03-14T03:42:03;17.20;63.50
5520;DHT22;2782;52.362;10.012;2023-03-14T03:43:05;17.20;63.60
5520;DHT22;2782;52.362;10.012;2023-03-14T03:44:07;17.20;63.40
5520;DHT22;2782;52.362;10.012;2023-03-14T03:45:09;17.20;63.40
5520;DHT22;2782;52.362;10.012;2023-03-14T03:46:09;17.20;63.40
5520;DHT22;2782;52.362;10.012;2023-03-14T03:47:11;17.20;63.30
5520;DHT22;2782;52.362;10.012;2023-03-14T03:48:12;17.20;63.30
5520;DHT22;2782;52.362;10.012;2023-03-14T03:49:13;17.20;63.20
5520;DHT22;2782;52.362;10.012;2023-03-14T03:50:14;17.20;63.20
5520;DHT22;2782;52.362;10.012;2023-03-14T03:51:16;17.20;63.20
5520;DHT22;2782;52.362;10.012;2023-03-14T03:52:16;17.20;63.20
5520;DHT22;2782;52.362;10.012;2023-03-14T03:53:18;17.20;63.10
5520;DHT22;2782;52.362;10.012;2023-03-14T03:54:19;17.10;63.00
5520;DHT22;2782;52.362;10.012;2023-03-14T03:55:20;17.20;63.10
5520;DHT22;2782;52.362;10.012;2023-03-14T03:56:21;17.20;63.70
5520;DHT22;2782;52.362;10.012;2023-03-14T03:57:23;17.10;62.90
5520;DHT22;2782;52.362;10.012;2023-03-14T03:58:23;17.20;62.90
5520;DHT22;2782;52.362;10.012;2023-03-14T03:59:26;17.20;62.90
5520;DHT22;2782;52.362;10.012;2023-03-14T04:00:27;17.20;62.90
5520;DHT22;2782;52.362;10.012;2023-03-14T04:01:29;17.20;62.90
5520;DHT22;2782;52.362;10.012;2023-03-14T04:02:29;17.10;62.80
5520;DHT22;2782;52.362;10.012;2023-03-14T04:03:31;17.10;62.70
5520;DHT22;2782;52.362;10.012;2023-03-14T04:04:32;17.20;62.80
5520;DHT22;2782;52.362;10.012;2023-03-14T04:05:33;17.10;62.70
5520;DHT22;2782;52.362;10.012;2023-03-14T04:06:34;17.10;62.60
5520;DHT22;2782;52.362;10.012;2023-03-14T04:07:36;17.10;62.50
5520;DHT22;2782;52.362;10.012;2023-03-14T04:08:37;17.10;62.50
5520;DHT22;2782;52.362;10.012;2023-03-14T04:09:39;17.10;62.50
5520;DHT22;2782;52.362;10.012;2023-03-14T04:10:40;17.10;62.40
5520;DHT22;2782;52.362;10.012;2023-03-14T04:11:41;17.10;62.50
5520;DHT22;2782;52.362;10.012;2023-03-14T04:12:42;17.20;62.60
5520;DHT22;2782;52.362;10.012;2023-03-14T04:13:43;17.10;62.50
5520;DHT22;2782;52.362;10.012;2023-03-14T04:14:46;17.20;62.60
5520;DHT22;2782;52.362;10.012;2023-03-14T04:15:48;17.10;62.60
5520;DHT22;2782;52.362;10.012;2023-03-14T04:16:48;17.20;62.60
5520;DHT22;2782;52.362;10.012;2023-03-14T04:17:50;17.10;62.50
5520;DHT22;2782;52.362;10.012;2023-03-14T04:18:51;17.10;62.50
5520;DHT22;2782;52.362;10.012;2023-03-14T04:19:52;17.10;62.50
5520;DHT22;2782;52.362;10.012;2023-03-14T04:20:55;17.10;62.40
5520;DHT22;2782;52.362;10.012;2023-03-14T04:21:57;17.10;62.40
5520;DHT22;2782;52.362;10.012;2023-03-14T04:22:57;17.10;62.50
5520;DHT22;2782;52.362;10.012;2023-03-14T04:23:59;17.10;62.50
5520;DHT22;2782;52.362;10.012;2023-03-14T04:25:00;17.10;62.50
5520;DHT22;2782;52.362;10.012;2023-03-14T04:26:02;17.10;62.50
5520;DHT22;2782;52.362;10.012;2023-03-14T04:27:03;17.10;62.50
5520;DHT22;2782;52.362;10.012;2023-03-14T04:28:04;17.10;62.40
5520;DHT22;2782;52.362;10.012;2023-03-14T04:29:05;17.10;62.40
5520;DHT22;2782;52.362;10.012;2023-03-14T04:30:09;17.10;62.30
5520;DHT22;2782;52.362;10.012;2023-03-14T04:31:11;17.10;62.40
5520;DHT22;2782;52.362;10.012;2023-03-14T04:32:13;17.10;62.30
5520;DHT22;2782;52.362;10.012;2023-03-14T04:33:14;17.10;62.30
5520;DHT22;2782;52.362;10.012;2023-03-14T04:34:17;17.10;62.30
5520;DHT22;2782;52.362;10.012;2023-03-14T04:35:19;17.10;62.30
5520;DHT22;2782;52.362;10.012;2023-03-14T04:36:19;17.10;62.30
5520;DHT22;2782;52.362;10.012;2023-03-14T04:37:21;17.10;62.30
5520;DHT22;2782;52.362;10.012;2023-03-14T04:38:21;17.10;62.30
5520;DHT22;2782;52.362;10.012;2023-03-14T04:39:23;17.10;62.30
5520;DHT22;2782;52.362;10.012;2023-03-14T04:40:24;17.10;62.30
5520;DHT22;2782;52.362;10.012;2023-03-14T04:41:25;17.10;62.20
5520;DHT22;2782;52.362;10.012;2023-03-14T04:42:26;17.10;62.20
5520;DHT22;2782;52.362;10.012;2023-03-14T04:43:27;17.10;62.20
5520;DHT22;2782;52.362;10.012;2023-03-14T04:44:28;17.10;62.20
5520;DHT22;2782;52.362;10.012;2023-03-14T04:45:31;17.10;62.20
5520;DHT22;2782;52.362;10.012;2023-03-14T04:46:32;17.10;62.20
5520;DHT22;2782;52.362;10.012;2023-03-14T04:47:34;17.10;62.10
5520;DHT22;2782;52.362;10.012;2023-03-14T04:48:34;17.10;62.20
5520;DHT22;2782;52.362;10.012;2023-03-14T04:49:37;17.10;62.10
5520;DHT22;2782;52.362;10.012;2023-03-14T04:50:38;17.10;62.00
5520;DHT22;2782;52.362;10.012;2023-03-14T04:51:40;17.10;61.90
5520;DHT22;2782;52.362;10.012;2023-03-14T04:52:41;17.10;61.70
5520;DHT22;2782;52.362;10.012;2023-03-14T04:53:42;17.10;61.70
5520;DHT22;2782;52.362;10.012;2023-03-14T04:54:43;17.10;61.80
5520;DHT22;2782;52.362;10.012;2023-03-14T04:55:47;17.10;61.80
5520;DHT22;2782;52.362;10.012;2023-03-14T04:56:48;17.10;61.90
5520;DHT22;2782;52.362;10.012;2023-03-14T04:57:50;17.10;61.90
5520;DHT22;2782;52.362;10.012;2023-03-14T04:58:50;17.10;61.80
5520;DHT22;2782;52.362;10.012;2023-03-14T04:59:52;17.10;61.90
5520;DHT22;2782;52.362;10.012;2023-03-14T05:00:54;17.10;61.90
5520;DHT22;2782;52.362;10.012;2023-03-14T05:01:55;17.10;61.90
5520;DHT22;2782;52.362;10.012;2023-03-14T05:02:56;17.10;61.80
5520;DHT22;2782;52.362;10.012;2023-03-14T05:03:58;17.10;61.90
5520;DHT22;2782;52.362;10.012;2023-03-14T05:04:58;17.20;61.90
5520;DHT22;2782;52.362;10.012;2023-03-14T05:06:00;17.20;61.90
5520;DHT22;2782;52.362;10.012;2023-03-14T05:07:01;17.20;61.80
5520;DHT22;2782;52.362;10.012;2023-03-14T05:08:03;17.20;61.90
5520;DHT22;2782;52.362;10.012;2023-03-14T05:09:03;17.20;61.80
5520;DHT22;2782;52.362;10.012;2023-03-14T05:10:06;17.20;61.70
5520;DHT22;2782;52.362;10.012;2023-03-14T05:11:10;17.20;61.70
5520;DHT22;2782;52.362;10.012;2023-03-14T05:12:12;17.20;61.80
5520;DHT22;2782;52.362;10.012;2023-03-14T05:13:13;17.30;61.80
5520;DHT22;2782;52.362;10.012;2023-03-14T05:14:14;17.30;61.80
5520;DHT22;2782;52.362;10.012;2023-03-14T05:15:15;17.30;61.80
5520;DHT22;2782;52.362;10.012;2023-03-14T05:16:18;17.30;61.80
5520;DHT22;2782;52.362;10.012;2023-03-14T05:17:18;17.30;61.90
5520;DHT22;2782;52.362;10.012;2023-03-14T05:18:20;17.30;61.90
5520;DHT22;2782;52.362;10.012;2023-03-14T05:19:21;17.30;61.90
5520;DHT22;2782;52.362;10.012;2023-03-14T05:20:22;17.30;61.80
5520;DHT22;2782;52.362;10.012;2023-03-14T05:21:23;17.30;61.90
5520;DHT22;2782;52.362;10.012;2023-03-14T05:22:25;17.30;61.90
5520;DHT22;2782;52.362;10.012;2023-03-14T05:23:25;17.30;61.90
5520;DHT22;2782;52.362;10.012;2023-03-14T05:24:27;17.30;61.90
5520;DHT22;2782;52.362;10.012;2023-03-14T05:25:28;17.40;61.90
5520;DHT22;2782;52.362;10.012;2023-03-14T05:26:29;17.40;61.90
5520;DHT22;2782;52.362;10.012;2023-03-14T05:27:30;17.40;61.90
5520;DHT22;2782;52.362;10.012;2023-03-14T05:28:32;17.40;61.90
5520;DHT22;2782;52.362;10.012;2023-03-14T05:29:32;17.40;61.90
5520;DHT22;2782;52.362;10.012;2023-03-14T05:30:34;17.40;61.90
5520;DHT22;2782;52.362;10.012;2023-03-14T05:31:36;17.40;61.80
5520;DHT22;2782;52.362;10.012;2023-03-14T05:32:37;17.40;61.90
5520;DHT22;2782;52.362;10.012;2023-03-14T05:33:38;17.40;61.90
5520;DHT22;2782;52.362;10.012;2023-03-14T05:34:40;17.40;61.80
5520;DHT22;2782;52.362;10.012;2023-03-14T05:35:41;17.40;61.80
5520;DHT22;2782;52.362;10.012;2023-03-14T05:36:43;17.40;61.80
5520;DHT22;2782;52.362;10.012;2023-03-14T05:37:44;17.40;61.90
5520;DHT22;2782;52.362;10.012;2023-03-14T05:38:45;17.40;61.80
5520;DHT22;2782;52.362;10.012;2023-03-14T05:39:46;17.40;61.80
5520;DHT22;2782;52.362;10.012;2023-03-14T05:40:48;17.50;61.80
5520;DHT22;2782;52.362;10.012;2023-03-14T05:41:48;17.50;61.80
5520;DHT22;2782;52.362;10.012;2023-03-14T05:42:51;17.50;61.70
5520;DHT22;2782;52.362;10.012;2023-03-14T05:43:52;17.50;61.80
5520;DHT22;2782;52.362;10.012;2023-03-14T05:44:54;17.50;61.80
5520;DHT22;2782;52.362;10.012;2023-03-14T05:45:54;17.50;61.70
5520;DHT22;2782;52.362;10.012;2023-03-14T05:46:57;17.50;61.80
5520;DHT22;2782;52.362;10.012;2023-03-14T05:47:58;17.50;61.80
5520;DHT22;2782;52.362;10.012;2023-03-14T05:48:59;17.50;61.80
5520;DHT22;2782;52.362;10.012;2023-03-14T05:50:00;17.50;61.70
5520;DHT22;2782;52.362;10.012;2023-03-14T05:51:02;17.50;61.70
5520;DHT22;2782;52.362;10.012;2023-03-14T05:52:02;17.50;61.70
5520;DHT22;2782;52.362;10.012;2023-03-14T05:53:04;17.50;61.70
5520;DHT22;2782;52.362;10.012;2023-03-14T05:54:05;17.50;61.70
5520;DHT22;2782;52.362;10.012;2023-03-14T05:55:07;17.50;61.70
5520;DHT22;2782;52.362;10.012;2023-03-14T05:56:08;17.50;61.70
5520;DHT22;2782;52.362;10.012;2023-03-14T05:57:10;17.50;61.70
5520;DHT22;2782;52.362;10.012;2023-03-14T05:58:11;17.60;61.90
5520;DHT22;2782;52.362;10.012;2023-03-14T05:59:12;17.50;61.70
5520;DHT22;2782;52.362;10.012;2023-03-14T06:00:14;17.50;61.70
5520;DHT22;2782;52.362;10.012;2023-03-14T06:01:16;17.60;61.80
5520;DHT22;2782;52.362;10.012;2023-03-14T06:02:18;17.50;61.70
5520;DHT22;2782;52.362;10.012;2023-03-14T06:03:20;17.60;61.80
5520;DHT22;2782;52.362;10.012;2023-03-14T06:04:20;17.60;61.80
5520;DHT22;2782;52.362;10.012;2023-03-14T06:05:22;17.60;61.80
5520;DHT22;2782;52.362;10.012;2023-03-14T06:06:22;17.60;61.80
5520;DHT22;2782;52.362;10.012;2023-03-14T06:07:24;17.60;61.70
5520;DHT22;2782;52.362;10.012;2023-03-14T06:08:25;17.60;61.70
5520;DHT22;2782;52.362;10.012;2023-03-14T06:09:26;17.60;61.80
5520;DHT22;2782;52.362;10.012;2023-03-14T06:10:27;17.60;61.70
5520;DHT22;2782;52.362;10.012;2023-03-14T06:11:29;17.60;61.70
5520;DHT22;2782;52.362;10.012;2023-03-14T06:12:29;17.60;61.70
5520;DHT22;2782;52.362;10.012;2023-03-14T06:13:31;17.60;61.70
5520;DHT22;2782;52.362;10.012;2023-03-14T06:14:32;17.60;61.70
5520;DHT22;2782;52.362;10.012;2023-03-14T06:15:33;17.60;62.40
5520;DHT22;2782;52.362;10.012;2023-03-14T06:16:36;17.60;61.60
5520;DHT22;2782;52.362;10.012;2023-03-14T06:17:39;17.60;61.60
5520;DHT22;2782;52.362;10.012;2023-03-14T06:18:40;17.60;61.60
5520;DHT22;2782;52.362;10.012;2023-03-14T06:19:41;17.60;61.60
5520;DHT22;2782;52.362;10.012;2023-03-14T06:20:43;17.60;61.60
5520;DHT22;2782;52.362;10.012;2023-03-14T06:21:45;17.60;61.60
5520;DHT22;2782;52.362;10.012;2023-03-14T06:22:46;17.60;61.60
5520;DHT22;2782;52.362;10.012;2023-03-14T06:23:47;17.60;61.70
5520;DHT22;2782;52.362;10.012;2023-03-14T06:24:48;17.60;61.70
5520;DHT22;2782;52.362;10.012;2023-03-14T06:25:49;17.60;61.60
5520;DHT22;2782;52.362;10.012;2023-03-14T06:26:50;17.60;61.60
5520;DHT22;2782;52.362;10.012;2023-03-14T06:27:52;17.60;62.30
5520;DHT22;2782;52.362;10.012;2023-03-14T06:28:52;17.60;61.60
5520;DHT22;2782;52.362;10.012;2023-03-14T06:29:54;17.60;61.60
5520;DHT22;2782;52.362;10.012;2023-03-14T06:30:55;17.60;61.60
5520;DHT22;2782;52.362;10.012;2023-03-14T06:31:57;17.60;61.60
5520;DHT22;2782;52.362;10.012;2023-03-14T06:32:59;17.60;61.60
5520;DHT22;2782;52.362;10.012;2023-03-14T06:34:00;17.60;61.60
5520;DHT22;2782;52.362;10.012;2023-03-14T06:35:01;17.60;61.60
5520;DHT22;2782;52.362;10.012;2023-03-14T06:36:03;17.60;61.50
5520;DHT22;2782;52.362;10.012;2023-03-14T06:37:03;17.60;61.60
5520;DHT22;2782;52.362;10.012;2023-03-14T06:38:06;17.60;61.50
5520;DHT22;2782;52.362;10.012;2023-03-14T06:39:06;17.60;61.50
5520;DHT22;2782;52.362;10.012;2023-03-14T06:40:09;17.60;61.50
5520;DHT22;2782;52.362;10.012;2023-03-14T06:41:10;17.60;61.50
5520;DHT22;2782;52.362;10.012;2023-03-14T06:42:11;17.60;61.60